createdAt,value
2017-10-06T18:01:04.312Z,1013.47
2017-10-06T18:02:04.915Z,1013.48
2017-10-06T18:03:05.512Z,1013.53
2017-10-06T18:04:06.126Z,1013.52
2017-10-06T18:05:06.766Z,1013.54
2017-10-06T18:06:07.370Z,1013.55
2017-10-06T18:07:07.982Z,1013.57
2017-10-06T18:08:08.589Z,1013.57
2017-10-06T18:09:09.197Z,1013.57
2017-10-06T18:10:09.809Z,1013.57
2017-10-06T18:11:10.418Z,1013.60
2017-10-06T18:12:11.023Z,1013.61
2017-10-06T18:13:11.618Z,1013.65
2017-10-06T18:14:12.226Z,1013.65
2017-10-06T18:15:12.838Z,1013.67
2017-10-06T18:16:13.443Z,1013.66
2017-10-06T18:17:14.045Z,1013.65
2017-10-06T18:18:14.651Z,1013.66
2017-10-06T18:19:15.258Z,1013.64
2017-10-06T18:20:15.875Z,1013.67
2017-10-06T18:21:16.463Z,1013.69
2017-10-06T18:22:17.060Z,1013.70
2017-10-06T18:23:17.677Z,1013.71
2017-10-06T18:24:18.278Z,1013.77
2017-10-06T18:25:18.887Z,1013.74
2017-10-06T18:26:19.485Z,1013.76
2017-10-06T18:27:20.080Z,1013.77
2017-10-06T18:28:20.697Z,1013.72
2017-10-06T18:29:21.308Z,1013.79
2017-10-06T18:30:21.917Z,1013.83
2017-10-06T18:31:22.523Z,1013.87
2017-10-06T18:32:23.119Z,1013.86
2017-10-06T18:33:23.719Z,1013.89
2017-10-06T18:34:24.329Z,1013.89
2017-10-06T18:35:24.936Z,1013.91
2017-10-06T18:36:25.553Z,1013.89
2017-10-06T18:37:26.163Z,1013.92
2017-10-06T18:38:26.768Z,1013.92
2017-10-06T18:39:27.381Z,1013.92
2017-10-06T18:40:27.988Z,1013.91
2017-10-06T18:41:28.597Z,1013.91
2017-10-06T18:42:29.217Z,1013.87
2017-10-06T18:43:29.803Z,1013.90
2017-10-06T18:44:30.399Z,1013.94
2017-10-06T18:45:31.008Z,1013.92
2017-10-06T18:46:31.613Z,1013.91
2017-10-06T18:47:32.226Z,1013.95
2017-10-06T18:48:32.832Z,1013.94
2017-10-06T18:49:33.439Z,1013.96
2017-10-06T18:50:34.049Z,1013.96
2017-10-06T18:51:34.656Z,1013.98
2017-10-06T18:52:35.264Z,1014.03
2017-10-06T18:53:35.884Z,1014.03
2017-10-06T18:54:36.493Z,1014.03
2017-10-06T18:55:37.104Z,1014.11
2017-10-06T18:56:37.708Z,1014.07
2017-10-06T18:57:38.317Z,1014.15
2017-10-06T18:58:38.923Z,1014.13
2017-10-06T18:59:39.530Z,1014.21
2017-10-06T19:00:40.130Z,1014.20
2017-10-06T19:01:40.740Z,1014.19
2017-10-06T19:02:41.346Z,1014.14
2017-10-06T19:03:41.952Z,1014.15
2017-10-06T19:04:42.551Z,1014.18
2017-10-06T19:05:43.163Z,1014.17
2017-10-06T19:06:43.778Z,1014.19
2017-10-06T19:07:44.380Z,1014.18
2017-10-06T19:08:44.977Z,1014.17
2017-10-06T19:09:45.572Z,1014.17
2017-10-06T19:10:46.173Z,1014.18
2017-10-06T19:11:46.782Z,1014.21
2017-10-06T19:12:47.388Z,1014.19
2017-10-06T19:13:48.984Z,1014.21
2017-10-06T19:14:49.594Z,1014.21
2017-10-06T19:15:50.192Z,1014.18
2017-10-06T19:16:50.790Z,1014.22
2017-10-06T19:17:51.398Z,1014.23
2017-10-06T19:18:52.006Z,1014.21
2017-10-06T19:19:52.612Z,1014.24
2017-10-06T19:20:53.218Z,1014.21
2017-10-06T19:21:53.825Z,1014.21
2017-10-06T19:22:54.440Z,1014.22
2017-10-06T19:23:55.052Z,1014.27
2017-10-06T19:24:55.646Z,1014.21
2017-10-06T19:25:56.255Z,1014.19
2017-10-06T19:26:56.888Z,1014.24
2017-10-06T19:27:57.458Z,1014.27
2017-10-06T19:28:58.070Z,1014.24
2017-10-06T19:29:58.678Z,1014.26
2017-10-06T19:30:59.292Z,1014.29
2017-10-06T19:31:59.896Z,1014.29
2017-10-06T19:33:00.507Z,1014.26
2017-10-06T19:34:01.112Z,1014.28
2017-10-06T19:35:01.711Z,1014.27
2017-10-06T19:36:02.320Z,1014.26
2017-10-06T19:37:02.936Z,1014.28
2017-10-06T19:38:03.524Z,1014.26
2017-10-06T19:39:04.132Z,1014.28
2017-10-06T19:40:04.744Z,1014.29
2017-10-06T19:41:05.352Z,1014.29
2017-10-06T19:42:05.951Z,1014.31
2017-10-06T19:43:06.563Z,1014.29
2017-10-06T19:44:07.176Z,1014.28
2017-10-06T19:45:07.764Z,1014.29
2017-10-06T19:46:08.384Z,1014.25
2017-10-06T19:47:08.981Z,1014.25
2017-10-06T19:48:09.580Z,1014.28
2017-10-06T19:49:10.221Z,1014.21
2017-10-06T19:50:10.790Z,1014.26
2017-10-06T19:51:11.389Z,1014.26
2017-10-06T19:52:11.986Z,1014.28
2017-10-06T19:53:12.598Z,1014.31
2017-10-06T19:54:13.204Z,1014.31
2017-10-06T19:55:13.806Z,1014.30
2017-10-06T19:56:14.417Z,1014.28
2017-10-06T19:57:15.028Z,1014.28
2017-10-06T19:58:15.635Z,1014.30
2017-10-06T19:59:16.232Z,1014.31
2017-10-06T20:00:16.841Z,1014.32
2017-10-06T20:01:17.453Z,1014.32
2017-10-06T20:02:18.060Z,1014.35
2017-10-06T20:03:18.659Z,1014.31
2017-10-06T20:04:19.265Z,1014.31
2017-10-06T20:05:19.880Z,1014.32
2017-10-06T20:06:20.487Z,1014.33
2017-10-06T20:07:21.099Z,1014.32
2017-10-06T20:08:21.704Z,1014.35
2017-10-06T20:09:22.315Z,1014.34
2017-10-06T20:10:22.912Z,1014.36
2017-10-06T20:11:23.521Z,1014.31
2017-10-06T20:12:24.132Z,1014.30
2017-10-06T20:13:24.741Z,1014.35
2017-10-06T20:14:25.350Z,1014.33
2017-10-06T20:15:25.961Z,1014.34
2017-10-06T20:16:26.571Z,1014.33
2017-10-06T20:17:27.177Z,1014.38
2017-10-06T20:18:27.775Z,1014.34
2017-10-06T20:19:28.392Z,1014.39
2017-10-06T20:20:29.006Z,1014.33
2017-10-06T20:21:29.608Z,1014.36
2017-10-06T20:22:30.211Z,1014.35
2017-10-06T20:23:30.818Z,1014.38
2017-10-06T20:24:31.424Z,1014.41
2017-10-06T20:25:32.038Z,1014.45
2017-10-06T20:26:32.647Z,1014.45
2017-10-06T20:27:33.258Z,1014.48
2017-10-06T20:28:33.864Z,1014.53
2017-10-06T20:29:34.463Z,1014.57
2017-10-06T20:30:35.071Z,1014.57
2017-10-06T20:31:35.686Z,1014.58
2017-10-06T20:32:36.298Z,1014.58
2017-10-06T20:33:36.883Z,1014.63
2017-10-06T20:34:37.491Z,1014.61
2017-10-06T20:35:38.102Z,1014.63
2017-10-06T20:36:38.711Z,1014.60
2017-10-06T20:37:39.326Z,1014.56
2017-10-06T20:38:39.930Z,1014.64
2017-10-06T20:39:40.544Z,1014.61
2017-10-06T20:40:41.147Z,1014.61
2017-10-06T20:41:41.753Z,1014.62
2017-10-06T20:42:42.360Z,1014.67
2017-10-06T20:43:42.967Z,1014.58
2017-10-06T20:44:43.576Z,1014.66
2017-10-06T20:45:44.197Z,1014.62
2017-10-06T20:46:44.809Z,1014.66
2017-10-06T20:47:45.403Z,1014.63
2017-10-06T20:48:46.009Z,1014.62
2017-10-06T20:49:46.608Z,1014.64
2017-10-06T20:50:47.215Z,1014.65
2017-10-06T20:51:47.827Z,1014.67
2017-10-06T20:52:48.431Z,1014.68
2017-10-06T20:53:49.038Z,1014.65
2017-10-06T20:54:49.645Z,1014.66
2017-10-06T20:55:50.258Z,1014.65
2017-10-06T20:56:50.861Z,1014.68
2017-10-06T20:57:51.491Z,1014.68
2017-10-06T20:58:52.108Z,1014.68
2017-10-06T20:59:52.709Z,1014.74
2017-10-06T21:00:53.320Z,1014.69
2017-10-06T21:01:53.924Z,1014.67
2017-10-06T21:02:54.521Z,1014.70
2017-10-06T21:03:55.186Z,1014.74
2017-10-06T21:04:55.781Z,1014.71
2017-10-06T21:05:56.386Z,1014.73
2017-10-06T21:06:56.995Z,1014.75
2017-10-06T21:07:57.592Z,1014.76
2017-10-06T21:08:58.228Z,1014.76
2017-10-06T21:09:58.807Z,1014.75
2017-10-06T21:10:59.416Z,1014.81
2017-10-06T21:12:00.026Z,1014.81
2017-10-06T21:13:00.638Z,1014.76
2017-10-06T21:14:01.245Z,1014.77
2017-10-06T21:15:01.867Z,1014.79
2017-10-06T21:16:02.466Z,1014.79
2017-10-06T21:17:03.075Z,1014.82
2017-10-06T21:18:03.689Z,1014.82
2017-10-06T21:19:04.298Z,1014.81
2017-10-06T21:20:04.912Z,1014.83
2017-10-06T21:21:05.520Z,1014.83
2017-10-06T21:22:06.130Z,1014.79
2017-10-06T21:23:06.737Z,1014.80
2017-10-06T21:24:07.345Z,1014.84
2017-10-06T21:25:07.944Z,1014.83
2017-10-06T21:26:08.537Z,1014.88
2017-10-06T21:27:09.146Z,1014.85
2017-10-06T21:28:09.755Z,1014.84
2017-10-06T21:29:10.365Z,1014.89
2017-10-06T21:30:10.975Z,1014.88
2017-10-06T21:31:11.573Z,1014.92
2017-10-06T21:32:12.172Z,1014.91
2017-10-06T21:33:12.780Z,1014.92
2017-10-06T21:34:13.378Z,1014.93
2017-10-06T21:35:13.989Z,1014.93
2017-10-06T21:36:14.593Z,1014.96
2017-10-06T21:37:15.191Z,1014.94
2017-10-06T21:38:15.799Z,1014.95
2017-10-06T21:39:16.412Z,1014.98
2017-10-06T21:40:17.038Z,1014.96
2017-10-06T21:41:17.630Z,1014.98
2017-10-06T21:42:18.260Z,1015.00
2017-10-06T21:43:18.857Z,1015.02
2017-10-06T21:44:19.469Z,1014.96
2017-10-06T21:45:20.083Z,1015.03
2017-10-06T21:46:20.738Z,1015.03
2017-10-06T21:47:21.335Z,1015.03
2017-10-06T21:48:21.935Z,1015.03
2017-10-06T21:49:22.545Z,1015.08
2017-10-06T21:50:23.155Z,1015.10
2017-10-06T21:51:23.767Z,1015.08
2017-10-06T21:52:24.372Z,1015.07
2017-10-06T21:53:24.984Z,1015.11
2017-10-06T21:54:25.594Z,1015.06
2017-10-06T21:55:26.199Z,1015.07
2017-10-06T21:56:26.809Z,1015.12
2017-10-06T21:57:27.418Z,1015.11
2017-10-06T21:58:28.026Z,1015.16
2017-10-06T21:59:28.636Z,1015.15
2017-10-06T22:00:29.235Z,1015.10
2017-10-06T22:01:29.846Z,1015.15
2017-10-06T22:02:30.456Z,1015.14
2017-10-06T22:03:31.060Z,1015.14
2017-10-06T22:04:31.669Z,1015.17
2017-10-06T22:05:32.268Z,1015.15
2017-10-06T22:06:32.863Z,1015.14
2017-10-06T22:07:33.471Z,1015.17
2017-10-06T22:08:34.082Z,1015.16
2017-10-06T22:09:34.689Z,1015.13
2017-10-06T22:10:35.299Z,1015.10
2017-10-06T22:11:35.906Z,1015.12
2017-10-06T22:12:36.502Z,1015.12
2017-10-06T22:13:37.101Z,1015.11
2017-10-06T22:14:37.711Z,1015.05
2017-10-06T22:15:38.323Z,1015.11
2017-10-06T22:16:38.930Z,1015.06
2017-10-06T22:17:39.529Z,1015.10
2017-10-06T22:18:40.140Z,1015.09
2017-10-06T22:19:40.746Z,1015.11
2017-10-06T22:20:41.355Z,1015.15
2017-10-06T22:21:41.965Z,1015.10
2017-10-06T22:22:42.578Z,1015.14
2017-10-06T22:23:43.187Z,1015.13
2017-10-06T22:24:43.786Z,1015.15
2017-10-06T22:25:44.392Z,1015.06
2017-10-06T22:26:45.001Z,1015.12
2017-10-06T22:27:45.607Z,1015.08
2017-10-06T22:28:46.217Z,1015.10
2017-10-06T22:29:46.813Z,1015.06
2017-10-06T22:30:47.420Z,1015.04
2017-10-06T22:31:48.030Z,1015.09
2017-10-06T22:32:48.629Z,1015.03
2017-10-06T22:33:49.239Z,1015.10
2017-10-06T22:34:49.850Z,1015.04
2017-10-06T22:35:50.460Z,1015.08
2017-10-06T22:36:51.062Z,1015.06
2017-10-06T22:37:51.657Z,1015.04
2017-10-06T22:38:52.267Z,1015.07
2017-10-06T22:39:52.872Z,1015.09
2017-10-06T22:40:53.472Z,1015.06
2017-10-06T22:41:54.079Z,1015.07
2017-10-06T22:42:54.686Z,1015.07
2017-10-06T22:43:55.297Z,1015.03
2017-10-06T22:44:55.906Z,1015.02
2017-10-06T22:45:56.510Z,1015.02
2017-10-06T22:46:57.116Z,1015.05
2017-10-06T22:47:57.714Z,1015.05
2017-10-06T22:48:58.315Z,1015.00
2017-10-06T22:49:58.923Z,1015.00
2017-10-06T22:50:59.528Z,1014.96
2017-10-06T22:52:00.120Z,1014.94
2017-10-06T22:53:00.740Z,1014.94
2017-10-06T22:54:01.326Z,1014.91
2017-10-06T22:55:01.924Z,1014.91
2017-10-06T22:56:02.531Z,1014.90
2017-10-06T22:57:03.140Z,1014.86
2017-10-06T22:58:03.747Z,1014.92
2017-10-06T22:59:04.355Z,1014.88
2017-10-06T23:00:04.957Z,1014.89
2017-10-06T23:01:05.566Z,1014.91
2017-10-06T23:02:06.170Z,1014.84
2017-10-06T23:03:06.769Z,1014.89
2017-10-06T23:04:07.373Z,1014.84
2017-10-06T23:05:07.981Z,1014.84
2017-10-06T23:06:08.578Z,1014.83
2017-10-06T23:07:09.188Z,1014.81
2017-10-06T23:08:09.792Z,1014.78
2017-10-06T23:09:10.390Z,1014.85
2017-10-06T23:10:10.983Z,1014.81
2017-10-06T23:11:11.591Z,1014.81
2017-10-06T23:12:12.200Z,1014.82
2017-10-06T23:13:12.798Z,1014.83
2017-10-06T23:14:13.408Z,1014.82
2017-10-06T23:15:14.019Z,1014.86
2017-10-06T23:16:14.627Z,1014.91
2017-10-06T23:17:15.224Z,1014.93
2017-10-06T23:18:15.831Z,1014.90
2017-10-06T23:19:16.443Z,1014.89
2017-10-06T23:20:17.049Z,1014.96
2017-10-06T23:21:17.658Z,1014.96
2017-10-06T23:22:18.259Z,1014.91
2017-10-06T23:23:18.859Z,1014.91
2017-10-06T23:24:19.461Z,1014.88
2017-10-06T23:25:20.071Z,1014.85
2017-10-06T23:26:20.676Z,1014.89
2017-10-06T23:27:21.288Z,1014.91
2017-10-06T23:28:21.895Z,1014.89
2017-10-06T23:29:22.495Z,1014.87
2017-10-06T23:30:23.101Z,1014.87
2017-10-06T23:31:23.707Z,1014.88
2017-10-06T23:32:24.305Z,1014.86
2017-10-06T23:33:24.909Z,1014.89
2017-10-06T23:34:25.505Z,1014.93
2017-10-06T23:35:26.115Z,1014.89
2017-10-06T23:36:26.711Z,1014.85
2017-10-06T23:37:27.321Z,1014.87
2017-10-06T23:38:27.932Z,1014.86
2017-10-06T23:39:28.540Z,1014.88
2017-10-06T23:40:29.152Z,1014.85
2017-10-06T23:41:29.753Z,1014.81
2017-10-06T23:42:30.362Z,1014.82
2017-10-06T23:43:30.967Z,1014.83
2017-10-06T23:44:31.629Z,1014.79
2017-10-06T23:45:32.182Z,1014.84
2017-10-06T23:46:32.785Z,1014.83
2017-10-06T23:47:33.386Z,1014.81
2017-10-06T23:48:33.993Z,1014.81
2017-10-06T23:49:34.607Z,1014.83
2017-10-06T23:50:35.217Z,1014.80
2017-10-06T23:51:35.820Z,1014.82
2017-10-06T23:52:36.424Z,1014.83
2017-10-06T23:53:37.031Z,1014.84
2017-10-06T23:54:37.627Z,1014.79
2017-10-06T23:55:38.235Z,1014.80
2017-10-06T23:56:38.830Z,1014.77
2017-10-06T23:57:39.425Z,1014.71
2017-10-06T23:58:40.035Z,1014.74
2017-10-06T23:59:40.640Z,1014.75
